FAPP

Polokwane International Airport

Potgietersrus, South Africa
METAR FAPP 231000Z 04006KT 9999 BKN028 22/14 Q1016 NOSIG
Observed Flight Rules
Feb-23 @ 10:00 UTC (29 minutes ago) Marginal Visual Flight Rules
Wind Visibility Clouds
40° at 6 knots 10,000+ meters
  • Broken at 2,800' AGL
Temperatures Readings
Current 22°C / 72°F
Dewpoint 14°C / 57°F
Humidity 61%
Altimeter 30" Hg
Pressure 1016 hPa
Elevation 1242
METAR FAPP 231000Z 04006KT 9999 BKN028 22/14 Q1016 NOSIG
Observed Flight Rules
Feb-23 @ 10:00 UTC
(29 minutes ago)
MVFR
Wind Visibility
40° at 6 knots 10,000+ meters
Clouds
  • Broken at 2,800' AGL
Temperature Dewpoint
22°C / 72°F 14°C / 57°F
Humidity Altimeter Pressure
61% 30" Hg 1016 hPa